Погода Батюшковона 2 недели

Смоленская область, Россия

22 мая-03 июня
  • 22мая
    Сегодня
    +8°
    +22°
    Ясно и безоблачно
    ВремяПогодаТемператураВлажностьДавлениеВетер, м/сВероятность осадков
    00:00Ясно и безоблачно+12°C98 %742 мм1.7 м/с2 %
    03:00Ясно и безоблачно+11°C98 %742 мм1.9 м/с2 %
    06:00Ясно и безоблачно+11°C89 %743 мм2.5 м/с1 %
    09:00Ясно и безоблачно+17°C62 %744 мм2.5 м/с1 %
    12:00Ясно и безоблачно+21°C47 %744 мм3.5 м/с5 %
    15:00Ясно и безоблачно+21°C40 %744 мм3.7 м/с7 %
    18:00Ясно и безоблачно+21°C40 %744 мм3.8 м/с6 %
    21:00Ясно и безоблачно+15°C55 %744 мм3.3 м/с2 %
  • 23мая
    Четверг
    +6°
    +19°
    Ясно и безоблачно
    ВремяПогодаТемператураВлажностьДавлениеВетер, м/сВероятность осадков
    00:00Ясно и безоблачно+11°C62 %745 мм3.8 м/с2 %
    03:00Ясно и безоблачно+9°C63 %746 мм3.2 м/с2 %
    06:00Ясно и безоблачно+9°C64 %747 мм3.6 м/с2 %
    09:00Ясно и безоблачно+15°C47 %749 мм4.1 м/с2 %
    12:00Ясно и безоблачно+17°C37 %749 мм5.2 м/с2 %
    15:00Ясно и безоблачно+18°C36 %749 мм4.6 м/с2 %
    18:00Ясно и безоблачно+18°C35 %749 мм4.6 м/с2 %
    21:00Ясно и безоблачно+12°C52 %749 мм2.7 м/с2 %
  • 24мая
    Пятница
    +7°
    +20°
    Ясно и безоблачно
    ВремяПогодаТемператураВлажностьДавлениеВетер, м/сВероятность осадков
    00:00Ясно и безоблачно+9°C54 %750 мм2.8 м/с2 %
    03:00Облачно с прояснениями+7°C63 %751 мм2.6 м/с2 %
    06:00Ясно и безоблачно+7°C68 %752 мм2.3 м/с2 %
    09:00Ясно и безоблачно+15°C45 %753 мм3.1 м/с2 %
    12:00Ясно и безоблачно+18°C39 %753 мм3.4 м/с2 %
    15:00Ясно и безоблачно+19°C36 %752 мм2.9 м/с2 %
    18:00Ясно и безоблачно+20°C39 %751 мм2.7 м/с2 %
    21:00Ясно и безоблачно+14°C58 %751 мм2.9 м/с2 %
  • 25мая
    Суббота
    +10°
    +23°
    Практически безоблачно
    ВремяПогодаТемператураВлажностьДавлениеВетер, м/сВероятность осадков
    00:00Ясно и безоблачно+10°C68 %751 мм3.0 м/с2 %
    03:00Ясно и безоблачно+8°C74 %752 мм2.6 м/с2 %
    06:00Ясно и безоблачно+9°C76 %752 мм2.4 м/с2 %
    09:00Ясно и безоблачно+17°C53 %752 мм2.4 м/с2 %
    12:00Ясно и безоблачно+20°C41 %751 мм3.0 м/с2 %
    15:00Практически безоблачно+22°C38 %750 мм2.9 м/с2 %
    18:00Небольшая облачность+22°C42 %749 мм2.4 м/с2 %
    21:00Ясно и безоблачно+16°C66 %748 мм2.9 м/с2 %
Мы используем cookies
Соглашаюсь